createdAt,value
2022-10-21T00:00:11.472Z,100727.19
2022-10-21T00:03:11.221Z,100731.69
2022-10-21T00:06:08.614Z,100738.75
2022-10-21T00:09:05.452Z,100723.03
2022-10-21T00:12:02.176Z,100717.69
2022-10-21T00:14:59.535Z,100713.50
2022-10-21T00:17:56.550Z,100714.00
2022-10-21T00:20:53.381Z,100701.66
2022-10-21T00:23:50.464Z,100701.69
2022-10-21T00:26:49.808Z,100701.22
2022-10-21T00:29:46.676Z,100711.88
2022-10-21T00:32:43.636Z,100711.00
2022-10-21T00:35:40.858Z,100703.69
2022-10-21T00:38:38.477Z,100697.56
2022-10-21T00:41:35.505Z,100700.63
2022-10-21T00:44:32.446Z,100692.00
2022-10-21T00:47:29.429Z,100698.47
2022-10-21T00:50:31.231Z,100693.22
2022-10-21T00:53:28.327Z,100696.06
2022-10-21T00:56:27.260Z,100694.53
2022-10-21T00:59:26.637Z,100681.22
2022-10-21T01:02:23.393Z,100681.31
2022-10-21T01:05:20.310Z,100688.13
2022-10-21T01:08:17.499Z,100678.56
2022-10-21T01:11:16.047Z,100678.75
2022-10-21T01:14:32.456Z,100678.72
2022-10-21T01:17:45.974Z,100667.50
2022-10-21T01:21:07.612Z,100672.50
2022-10-21T01:25:09.023Z,100664.97
2022-10-21T01:28:09.483Z,100656.41
2022-10-21T01:31:32.413Z,100653.09
2022-10-21T01:34:39.330Z,100639.34
2022-10-21T01:38:01.176Z,100632.34
2022-10-21T01:41:13.114Z,100624.72
2022-10-21T01:44:30.013Z,100634.47
2022-10-21T01:47:33.187Z,100625.03
2022-10-21T01:50:31.956Z,100625.56
2022-10-21T01:53:30.730Z,100619.91
2022-10-21T01:56:27.616Z,100618.56
2022-10-21T01:59:24.847Z,100610.66
2022-10-21T02:02:22.458Z,100596.94
2022-10-21T02:05:21.641Z,100599.31
2022-10-21T02:08:18.384Z,100599.75
2022-10-21T02:11:15.413Z,100606.66
2022-10-21T02:14:19.882Z,100600.97
2022-10-21T02:17:18.622Z,100601.88
2022-10-21T02:20:15.431Z,100600.53
2022-10-21T02:23:13.617Z,100594.31
2022-10-21T02:26:10.431Z,100600.94
2022-10-21T02:29:07.585Z,100604.69
2022-10-21T02:32:26.029Z,100609.13
2022-10-21T02:35:33.174Z,100608.94
2022-10-21T02:38:37.868Z,100621.31
2022-10-21T02:41:34.439Z,100608.94
2022-10-21T02:44:31.432Z,100597.25
2022-10-21T02:47:29.358Z,100582.56
2022-10-21T02:50:26.523Z,100576.28
2022-10-21T02:53:23.688Z,100572.94
2022-10-21T02:56:20.339Z,100569.84
2022-10-21T02:59:17.584Z,100567.94
2022-10-21T03:02:14.452Z,100560.41
2022-10-21T03:05:12.965Z,100553.19
2022-10-21T03:08:10.808Z,100545.91
2022-10-21T03:11:07.426Z,100556.91
2022-10-21T03:14:04.667Z,100557.50
2022-10-21T03:17:01.710Z,100542.34
2022-10-21T03:19:58.548Z,100545.09
2022-10-21T03:22:55.308Z,100529.41
2022-10-21T03:25:52.813Z,100541.13
2022-10-21T03:28:50.687Z,100536.19
2022-10-21T03:31:47.529Z,100531.63
2022-10-21T03:34:44.506Z,100539.25
2022-10-21T03:37:41.428Z,100544.03
2022-10-21T03:40:38.751Z,100542.50
2022-10-21T03:43:35.611Z,100546.50
2022-10-21T03:46:32.749Z,100541.53
2022-10-21T03:49:29.447Z,100543.72
2022-10-21T03:52:26.366Z,100536.13
2022-10-21T03:55:25.287Z,100536.06
2022-10-21T03:58:22.988Z,100522.28
2022-10-21T04:01:19.480Z,100528.16
2022-10-21T04:04:16.760Z,100531.97
2022-10-21T04:07:13.650Z,100532.03
2022-10-21T04:10:10.635Z,100525.28
2022-10-21T04:13:07.650Z,100519.66
2022-10-21T04:16:05.741Z,100508.66
2022-10-21T04:19:02.441Z,100508.47
2022-10-21T04:21:59.410Z,100508.91
2022-10-21T04:24:59.695Z,100515.88
2022-10-21T04:27:59.793Z,100511.53
2022-10-21T04:30:56.669Z,100508.44
2022-10-21T04:33:53.583Z,100510.75
2022-10-21T04:36:50.764Z,100497.69
2022-10-21T04:39:47.558Z,100494.75
2022-10-21T04:42:48.561Z,100494.28
2022-10-21T04:45:45.604Z,100497.47
2022-10-21T04:48:43.279Z,100484.78
2022-10-21T04:51:40.361Z,100484.84
2022-10-21T04:54:37.756Z,100477.91
2022-10-21T04:57:34.297Z,100476.34
2022-10-21T05:00:31.547Z,100487.63
2022-10-21T05:03:28.549Z,100483.38
2022-10-21T05:06:25.598Z,100470.84
2022-10-21T05:09:22.650Z,100471.16
2022-10-21T05:12:20.018Z,100476.63
2022-10-21T05:15:17.849Z,100470.28
2022-10-21T05:18:14.661Z,100468.94
2022-10-21T05:21:11.809Z,100460.72
2022-10-21T05:24:08.865Z,100463.22
2022-10-21T05:27:05.583Z,100466.94
2022-10-21T05:30:02.609Z,100462.50
2022-10-21T05:32:59.547Z,100463.00
2022-10-21T05:36:01.830Z,100464.31
2022-10-21T05:38:58.693Z,100455.78
2022-10-21T05:41:55.955Z,100462.25
2022-10-21T05:44:52.482Z,100470.13
2022-10-21T05:47:49.653Z,100479.53
2022-10-21T05:50:47.239Z,100482.09
2022-10-21T05:53:44.912Z,100483.25
2022-10-21T05:56:42.646Z,100487.53
2022-10-21T05:59:39.638Z,100481.38
2022-10-21T06:02:36.786Z,100479.53
2022-10-21T06:05:33.624Z,100486.34
2022-10-21T06:08:31.121Z,100477.66
2022-10-21T06:11:28.994Z,100481.44
2022-10-21T06:14:26.469Z,100478.03
2022-10-21T06:17:23.653Z,100486.25
2022-10-21T06:20:21.056Z,100494.59
2022-10-21T06:23:17.782Z,100485.50
2022-10-21T06:26:15.679Z,100487.38
2022-10-21T06:29:14.952Z,100480.56
2022-10-21T06:32:12.338Z,100490.44
2022-10-21T06:35:10.003Z,100482.97
2022-10-21T06:38:07.090Z,100489.50
2022-10-21T06:41:12.140Z,100491.47
2022-10-21T06:44:10.674Z,100492.34
2022-10-21T06:47:08.071Z,100498.56
2022-10-21T06:50:05.148Z,100487.38
2022-10-21T06:53:02.652Z,100482.28
2022-10-21T06:56:10.628Z,100494.97
2022-10-21T06:59:07.773Z,100482.84
2022-10-21T07:02:05.099Z,100488.75
2022-10-21T07:05:01.965Z,100477.59
2022-10-21T07:07:59.506Z,100496.25
2022-10-21T07:10:56.793Z,100495.88
2022-10-21T07:13:53.719Z,100494.94
2022-10-21T07:16:51.708Z,100498.69
2022-10-21T07:19:49.155Z,100498.16
2022-10-21T07:22:46.882Z,100493.84
2022-10-21T07:25:43.816Z,100500.91
2022-10-21T07:28:42.177Z,100494.25
2022-10-21T07:31:40.045Z,100496.44
2022-10-21T07:34:36.813Z,100501.53
2022-10-21T07:37:33.632Z,100503.94
2022-10-21T07:40:31.013Z,100514.94
2022-10-21T07:43:27.944Z,100512.72
2022-10-21T07:46:24.821Z,100515.38
2022-10-21T07:49:21.665Z,100525.47
2022-10-21T07:52:19.063Z,100517.94
2022-10-21T07:55:16.716Z,100522.78
2022-10-21T07:58:13.785Z,100524.16
2022-10-21T08:01:11.066Z,100535.72
2022-10-21T08:04:07.613Z,100543.22
2022-10-21T08:07:05.040Z,100542.25
2022-10-21T08:10:02.098Z,100546.75
2022-10-21T08:12:58.993Z,100546.91
2022-10-21T08:15:57.002Z,100554.28
2022-10-21T08:18:54.143Z,100551.84
2022-10-21T08:21:51.626Z,100551.06
2022-10-21T08:24:49.027Z,100542.53
2022-10-21T08:27:46.032Z,100531.75
2022-10-21T08:30:43.608Z,100528.28
2022-10-21T08:33:40.770Z,100534.59
2022-10-21T08:36:37.987Z,100525.81
2022-10-21T08:39:34.622Z,100522.94
2022-10-21T08:42:32.073Z,100532.69
2022-10-21T08:45:44.105Z,100521.44
2022-10-21T08:48:48.760Z,100524.06
2022-10-21T08:51:50.574Z,100526.22
2022-10-21T08:54:52.861Z,100513.75
2022-10-21T08:57:50.391Z,100508.84
2022-10-21T09:00:51.098Z,100509.00
2022-10-21T09:04:00.034Z,100518.00
2022-10-21T09:07:15.246Z,100505.03
2022-10-21T09:10:35.912Z,100501.78
2022-10-21T09:13:50.363Z,100511.63
2022-10-21T09:17:13.384Z,100505.56
2022-10-21T09:20:34.411Z,100517.38
2022-10-21T09:26:34.727Z,100518.59
2022-10-21T09:29:37.453Z,100523.44
2022-10-21T09:32:37.979Z,100530.03
2022-10-21T09:35:48.248Z,100520.28
2022-10-21T09:39:05.658Z,100523.69
2022-10-21T09:42:07.342Z,100533.19
2022-10-21T09:45:33.967Z,100519.41
2022-10-21T09:48:53.952Z,100513.69
2022-10-21T09:51:56.633Z,100514.84
2022-10-21T09:54:53.937Z,100504.63
2022-10-21T09:57:56.242Z,100507.06
2022-10-21T10:00:53.004Z,100520.50
2022-10-21T10:03:51.149Z,100526.72
2022-10-21T10:06:47.888Z,100539.84
2022-10-21T10:09:48.043Z,100535.72
2022-10-21T10:12:44.722Z,100541.47
2022-10-21T10:15:43.120Z,100539.47
2022-10-21T10:18:40.312Z,100537.41
2022-10-21T10:21:36.927Z,100532.13
2022-10-21T10:24:33.799Z,100537.00
2022-10-21T10:27:30.759Z,100535.78
2022-10-21T10:30:38.995Z,100532.53
2022-10-21T10:33:36.041Z,100528.84
2022-10-21T10:36:42.339Z,100521.84
2022-10-21T10:39:39.247Z,100537.34
2022-10-21T10:42:38.016Z,100531.69
2022-10-21T10:45:34.940Z,100528.88
2022-10-21T10:48:42.544Z,100527.22
2022-10-21T10:51:42.795Z,100533.75
2022-10-21T10:54:41.042Z,100522.75
2022-10-21T10:57:52.003Z,100515.81
2022-10-21T11:00:57.666Z,100530.06
2022-10-21T11:03:57.690Z,100527.63
2022-10-21T11:06:58.665Z,100523.50
2022-10-21T11:09:59.076Z,100517.31
2022-10-21T11:12:56.015Z,100527.63
2022-10-21T11:16:50.530Z,100519.56
2022-10-21T11:20:18.846Z,100521.03
2022-10-21T11:23:47.484Z,100517.44
2022-10-21T11:27:00.308Z,100512.91
2022-10-21T11:30:03.488Z,100523.09
2022-10-21T11:33:01.134Z,100526.78
2022-10-21T11:36:36.508Z,100533.31
2022-10-21T11:39:42.970Z,100532.06
2022-10-21T11:42:44.223Z,100525.16
2022-10-21T11:46:05.130Z,100526.41
2022-10-21T11:49:37.218Z,100533.31
2022-10-21T11:53:14.312Z,100536.19
2022-10-21T11:56:19.489Z,100532.47
2022-10-21T11:59:43.408Z,100540.19
2022-10-21T12:02:45.775Z,100536.94
2022-10-21T12:05:51.266Z,100524.34
2022-10-21T12:08:55.877Z,100520.28
2022-10-21T12:11:57.076Z,100524.34
2022-10-21T12:14:58.858Z,100521.50
2022-10-21T12:17:56.391Z,100514.94
2022-10-21T12:20:54.306Z,100512.91
2022-10-21T12:23:55.021Z,100512.13
2022-10-21T12:26:56.781Z,100506.84
2022-10-21T12:29:57.030Z,100517.84
2022-10-21T12:33:15.183Z,100507.22
2022-10-21T12:36:14.718Z,100521.50
2022-10-21T12:39:16.597Z,100524.31
2022-10-21T12:42:16.003Z,100522.25
2022-10-21T12:45:45.677Z,100530.00
2022-10-21T12:48:46.167Z,100525.09
2022-10-21T12:51:47.622Z,100516.19
2022-10-21T12:55:00.691Z,100515.41
2022-10-21T12:58:00.149Z,100517.00
2022-10-21T13:00:57.791Z,100528.38
2022-10-21T13:03:55.817Z,100531.19
2022-10-21T13:06:54.592Z,100523.47
2022-10-21T13:09:52.102Z,100534.06
2022-10-21T13:12:49.081Z,100525.09
2022-10-21T13:15:46.638Z,100514.50
2022-10-21T13:18:53.934Z,100517.78
2022-10-21T13:21:52.403Z,100520.22
2022-10-21T13:24:49.350Z,100508.38
2022-10-21T13:27:51.048Z,100499.38
2022-10-21T13:30:48.105Z,100512.88
2022-10-21T13:33:52.061Z,100503.88
2022-10-21T13:36:50.551Z,100501.03
2022-10-21T13:39:48.509Z,100511.22
2022-10-21T13:42:48.389Z,100501.75
2022-10-21T13:45:49.748Z,100497.22
2022-10-21T13:48:48.267Z,100498.00
2022-10-21T13:51:46.056Z,100486.91
2022-10-21T13:57:40.760Z,100486.31
2022-10-21T14:00:37.953Z,100495.69
2022-10-21T14:03:35.621Z,100506.31
2022-10-21T14:06:40.063Z,100507.06
2022-10-21T14:09:42.421Z,100504.28
2022-10-21T14:12:41.563Z,100511.19
2022-10-21T14:15:43.865Z,100510.75
2022-10-21T14:18:44.437Z,100520.16
2022-10-21T14:21:44.024Z,100512.88
2022-10-21T14:24:42.391Z,100514.84
2022-10-21T14:27:39.216Z,100514.41
2022-10-21T14:30:37.171Z,100509.19
2022-10-21T14:33:34.474Z,100517.34
2022-10-21T14:36:31.967Z,100514.13
2022-10-21T14:39:28.868Z,100523.06
2022-10-21T14:42:26.499Z,100527.06
2022-10-21T14:45:28.465Z,100531.53
2022-10-21T14:48:32.593Z,100533.22
2022-10-21T14:51:35.536Z,100538.91
2022-10-21T14:54:39.012Z,100538.94
2022-10-21T14:58:03.678Z,100526.78
2022-10-21T15:01:03.187Z,100527.19
2022-10-21T15:04:00.942Z,100534.13
2022-10-21T15:07:00.152Z,100529.69
2022-10-21T15:10:03.844Z,100539.03
2022-10-21T15:13:00.943Z,100533.31
2022-10-21T15:15:59.105Z,100537.81
2022-10-21T15:18:56.449Z,100529.69
2022-10-21T15:22:00.761Z,100529.25
2022-10-21T15:25:00.625Z,100529.25
2022-10-21T15:28:00.071Z,100528.84
2022-10-21T15:30:57.093Z,100523.56
2022-10-21T15:33:56.421Z,100524.38
2022-10-21T15:36:53.261Z,100524.38
2022-10-21T15:39:50.145Z,100525.19
2022-10-21T15:42:47.213Z,100521.09
2022-10-21T15:45:44.123Z,100513.69
2022-10-21T15:48:41.096Z,100521.03
2022-10-21T15:51:38.019Z,100517.75
2022-10-21T15:54:35.475Z,100522.22
2022-10-21T15:57:32.281Z,100517.75
2022-10-21T16:00:29.140Z,100527.94
2022-10-21T16:03:28.157Z,100520.63
2022-10-21T16:06:25.212Z,100525.50
2022-10-21T16:09:24.840Z,100526.75
2022-10-21T16:12:22.277Z,100527.53
2022-10-21T16:15:19.401Z,100534.88
2022-10-21T16:18:16.966Z,100540.13
2022-10-21T16:21:14.961Z,100536.47
2022-10-21T16:24:12.277Z,100545.00
2022-10-21T16:27:12.867Z,100547.88
2022-10-21T16:30:17.172Z,100546.22
2022-10-21T16:33:14.030Z,100544.22
2022-10-21T16:36:22.454Z,100553.16
2022-10-21T16:39:20.477Z,100549.06
2022-10-21T16:42:17.128Z,100546.22
2022-10-21T16:45:14.064Z,100548.69
2022-10-21T16:48:11.507Z,100545.81
2022-10-21T16:51:09.256Z,100552.38
2022-10-21T16:54:06.162Z,100546.66
2022-10-21T16:57:06.936Z,100549.50
2022-10-21T17:00:04.805Z,100548.63
2022-10-21T17:03:02.186Z,100553.13
2022-10-21T17:05:59.142Z,100551.09
2022-10-21T17:08:56.354Z,100558.41
2022-10-21T17:11:53.100Z,100558.44
2022-10-21T17:14:49.931Z,100561.25
2022-10-21T17:17:47.227Z,100558.38
2022-10-21T17:20:44.129Z,100564.09
2022-10-21T17:23:41.529Z,100574.25
2022-10-21T17:26:38.625Z,100577.53
2022-10-21T17:29:35.629Z,100579.59
2022-10-21T17:32:32.362Z,100580.38
2022-10-21T17:35:29.227Z,100584.13
2022-10-21T17:38:26.415Z,100592.00
2022-10-21T17:41:23.501Z,100585.13
2022-10-21T17:44:20.151Z,100577.34
2022-10-21T17:47:17.651Z,100590.41
2022-10-21T17:50:14.168Z,100588.28
2022-10-21T17:53:11.203Z,100585.81
2022-10-21T17:56:08.260Z,100587.44
2022-10-21T17:59:05.304Z,100595.97
2022-10-21T18:02:02.033Z,100588.63
2022-10-21T18:05:00.808Z,100589.44
2022-10-21T18:07:58.541Z,100598.34
2022-10-21T18:10:58.351Z,100584.91
2022-10-21T18:13:55.397Z,100586.94
2022-10-21T18:16:53.304Z,100588.13
2022-10-21T18:19:51.249Z,100589.28
2022-10-21T18:22:48.377Z,100588.88
2022-10-21T18:25:45.195Z,100587.28
2022-10-21T18:28:42.410Z,100592.56
2022-10-21T18:31:39.690Z,100596.25
2022-10-21T18:34:37.520Z,100593.84
2022-10-21T18:37:35.080Z,100585.28
2022-10-21T18:40:33.591Z,100589.34
2022-10-21T18:43:30.153Z,100587.72
2022-10-21T18:46:28.635Z,100586.88
2022-10-21T18:49:25.579Z,100586.00
2022-10-21T18:52:22.526Z,100590.06
2022-10-21T18:55:19.561Z,100591.72
2022-10-21T18:58:16.309Z,100588.88
2022-10-21T19:01:15.147Z,100595.34
2022-10-21T19:07:10.572Z,100590.88
2022-10-21T19:10:08.018Z,100591.34
2022-10-21T19:13:05.355Z,100592.22
2022-10-21T19:16:02.236Z,100591.78
2022-10-21T19:18:59.804Z,100603.16
2022-10-21T19:21:57.489Z,100599.06
2022-10-21T19:24:54.285Z,100594.94
2022-10-21T19:27:51.496Z,100599.03
2022-10-21T19:30:48.285Z,100597.78
2022-10-21T19:33:45.430Z,100607.97
2022-10-21T19:36:42.640Z,100608.81
2022-10-21T19:39:40.215Z,100614.13
2022-10-21T19:42:38.064Z,100621.06
2022-10-21T19:45:35.826Z,100612.84
2022-10-21T19:48:35.505Z,100616.47
2022-10-21T19:51:32.313Z,100608.84
2022-10-21T19:54:29.205Z,100611.69
2022-10-21T19:57:26.435Z,100615.69
2022-10-21T20:00:23.371Z,100618.03
2022-10-21T20:03:20.168Z,100620.72
2022-10-21T20:06:22.090Z,100626.34
2022-10-21T20:09:19.408Z,100620.63
2022-10-21T20:12:16.751Z,100620.25
2022-10-21T20:15:13.300Z,100622.22
2022-10-21T20:18:10.182Z,100633.66
2022-10-21T20:21:07.751Z,100626.75
2022-10-21T20:24:04.920Z,100631.59
2022-10-21T20:27:02.485Z,100625.47
2022-10-21T20:29:59.683Z,100623.84
2022-10-21T20:32:56.644Z,100625.88
2022-10-21T20:35:53.485Z,100628.72
2022-10-21T20:38:50.659Z,100618.19
2022-10-21T20:41:47.391Z,100620.56
2022-10-21T20:47:46.438Z,100626.75
2022-10-21T20:50:43.228Z,100625.88
2022-10-21T20:53:44.606Z,100630.38
2022-10-21T20:56:41.812Z,100629.59
2022-10-21T20:59:38.341Z,100625.06
2022-10-21T21:02:36.920Z,100624.31
2022-10-21T21:05:38.140Z,100633.69
2022-10-21T21:08:37.097Z,100632.44
2022-10-21T21:11:34.436Z,100624.09
2022-10-21T21:14:31.619Z,100631.44
2022-10-21T21:17:28.478Z,100639.84
2022-10-21T21:20:25.453Z,100643.34
2022-10-21T21:23:22.393Z,100645.63
2022-10-21T21:26:23.457Z,100642.72
2022-10-21T21:29:20.835Z,100637.31
2022-10-21T21:32:19.129Z,100654.44
2022-10-21T21:35:16.818Z,100651.94
2022-10-21T21:38:13.597Z,100660.13
2022-10-21T21:41:10.909Z,100657.03
2022-10-21T21:44:09.325Z,100663.72
2022-10-21T21:47:06.812Z,100664.19
2022-10-21T21:50:03.592Z,100660.47
2022-10-21T21:53:00.715Z,100659.53
2022-10-21T21:56:03.342Z,100665.59
2022-10-21T21:59:00.401Z,100651.31
2022-10-21T22:01:57.421Z,100664.31
2022-10-21T22:04:54.763Z,100657.44
2022-10-21T22:07:51.762Z,100656.66
2022-10-21T22:10:49.715Z,100656.59
2022-10-21T22:13:46.714Z,100649.47
2022-10-21T22:16:43.457Z,100648.59
2022-10-21T22:19:40.347Z,100654.25
2022-10-21T22:22:37.366Z,100652.97
2022-10-21T22:25:34.588Z,100657.88
2022-10-21T22:28:31.635Z,100654.22
2022-10-21T22:31:30.523Z,100651.75
2022-10-21T22:34:28.530Z,100658.09
2022-10-21T22:37:25.380Z,100659.03
2022-10-21T22:40:22.107Z,100652.13
2022-10-21T22:43:19.536Z,100652.63
2022-10-21T22:49:33.658Z,100651.09
2022-10-21T22:52:30.383Z,100646.47
2022-10-21T22:55:27.426Z,100647.63
2022-10-21T22:58:24.350Z,100655.06
2022-10-21T23:01:21.826Z,100653.09
2022-10-21T23:04:19.365Z,100650.56
2022-10-21T23:07:16.805Z,100651.09
2022-10-21T23:10:13.941Z,100642.75
2022-10-21T23:13:11.284Z,100641.59
2022-10-21T23:16:08.743Z,100633.47
2022-10-21T23:19:06.990Z,100639.09
2022-10-21T23:22:04.915Z,100640.09
2022-10-21T23:25:01.701Z,100646.84
2022-10-21T23:27:58.416Z,100650.25
2022-10-21T23:30:56.133Z,100645.97
2022-10-21T23:33:53.668Z,100652.91
2022-10-21T23:36:50.551Z,100648.44
2022-10-21T23:39:47.287Z,100654.50
2022-10-21T23:42:44.770Z,100659.53
2022-10-21T23:45:41.710Z,100644.06
2022-10-21T23:48:38.515Z,100652.09
2022-10-21T23:51:35.573Z,100652.28
2022-10-21T23:54:32.778Z,100655.50
2022-10-21T23:57:29.552Z,100655.06
